Time;durP1;ratioP1;P1;durP2;ratioP2;P2;SDS_P1;SDS_P2;PMS_P1;PMS_P2;Temp;Humidity;BMP_temperature;BMP_pressure;BME280_temperature;BME280_humidity;BME280_pressure;Samples;Min_cycle;Max_cycle;Signal;HPM_P1;HPM_P2
2023/04/26 00:02:56;;;;;;;;;;;;;;;;;;7559364;23;19931;-77
2023/04/26 00:05:56;;;;;;;;;;;;;;;;;;7557918;23;19951;-77
2023/04/26 00:08:56;;;;;;;;;;;;;;;;;;7559196;23;19971;-77
2023/04/26 00:11:56;;;;;;;;;;;;;;;;;;7576863;23;19912;-77
2023/04/26 00:14:56;;;;;;;;;;;;;;;;;;7596934;23;19912;-77
2023/04/26 00:17:56;;;;;;;;;;;;;;;;;;7596340;23;19935;-77
2023/04/26 00:20:57;;;;;;;;;;;;;;;;;;7597247;23;19908;-77
2023/04/26 00:23:57;;;;;;;;;;;;;;;;;;7596897;23;19901;-77
2023/04/26 00:26:57;;;;;;;;;;;;;;;;;;7571000;23;19905;-77
2023/04/26 00:29:57;;;;;;;;;;;;;;;;;;7570099;23;19901;-76
2023/04/26 00:32:57;;;;;;;;;;;;;;;;;;7597253;23;19904;-76
2023/04/26 00:35:57;;;;;;;;;;;;;;;;;;7596804;23;19912;-77
2023/04/26 00:38:57;;;;;;;;;;;;;;;;;;7597756;23;19904;-77
2023/04/26 00:41:58;;;;;;;;;;;;;;;;;;7596459;23;19912;-77
2023/04/26 00:44:58;;;;;;;;;;;;;;;;;;7597285;23;19901;-76
2023/04/26 00:47:58;;;;;;;;;;;;;;;;;;7596837;23;19905;-76
2023/04/26 00:50:58;;;;;;;;;;;;;;;;;;7596585;23;19940;-77
2023/04/26 00:53:59;;;;;;;;;;;;;;;;;;7596851;23;20190;-77
2023/04/26 00:56:59;;;;;;;;;;;;;;;;;;7597090;23;19916;-77
2023/04/26 00:59:59;;;;;;;;;;;;;;;;;;7596968;23;19904;-81
2023/04/26 01:03:00;;;;;;;;;;;;;;;;;;7597080;23;19901;-77
2023/04/26 01:06:00;;;;;;;;;;;;;;;;;;7596536;23;19976;-77
2023/04/26 01:09:00;;;;;;;;;;;;;;;;;;7596524;23;20275;-77
2023/04/26 01:12:00;;;;;;;;;;;;;;;;;;7596509;23;20394;-77
2023/04/26 01:15:00;;;;;;;;;;;;;;;;;;7596545;23;19967;-77
2023/04/26 01:18:01;;;;;;;;;;;;;;;;;;7596285;23;19905;-77
2023/04/26 01:21:03;;;;;;;;;;;;;;;;;;7596952;23;20317;-81
2023/04/26 01:24:03;;;;;;;;;;;;;;;;;;7569651;23;19904;-82
2023/04/26 01:27:03;;;;;;;;;;;;;;;;;;7597441;23;19908;-82
2023/04/26 01:30:03;;;;;;;;;;;;;;;;;;7570861;23;20044;-82
2023/04/26 01:33:04;;;;;;;;;;;;;;;;;;7596952;23;19905;-82
2023/04/26 01:36:05;;;;;;;;;;;;;;;;;;7596106;23;20245;-82
2023/04/26 01:39:05;;;;;;;;;;;;;;;;;;7596611;23;19901;-82
2023/04/26 01:42:05;;;;;;;;;;;;;;;;;;7596468;23;19908;-82
2023/04/26 01:45:05;;;;;;;;;;;;;;;;;;7596149;23;19936;-83
2023/04/26 01:48:05;;;;;;;;;;;;;;;;;;7570197;23;20305;-82
2023/04/26 01:51:05;;;;;;;;;;;;;;;;;;7596629;23;19980;-82
2023/04/26 01:54:06;;;;;;;;;;;;;;;;;;7596098;23;19911;-83
2023/04/26 01:57:06;;;;;;;;;;;;;;;;;;7570779;23;20233;-83
2023/04/26 02:00:07;;;;;;;;;;;;;;;;;;7596487;23;19905;-82
2023/04/26 02:03:07;;;;;;;;;;;;;;;;;;7596247;23;19905;-82
2023/04/26 02:06:07;;;;;;;;;;;;;;;;;;7596483;23;19901;-83
2023/04/26 02:09:11;;;;;;;;;;;;;;;;;;7596360;23;19901;-82
2023/04/26 02:12:11;;;;;;;;;;;;;;;;;;7596581;23;19990;-83
2023/04/26 02:15:12;;;;;;;;;;;;;;;;;;7596689;23;20314;-83
2023/04/26 02:18:12;;;;;;;;;;;;;;;;;;7596702;23;19995;-81
2023/04/26 02:21:12;;;;;;;;;;;;;;;;;;7595970;23;20322;-80
2023/04/26 02:24:13;;;;;;;;;;;;;;;;;;7596139;23;19949;-81
2023/04/26 02:27:13;;;;;;;;;;;;;;;;;;7595807;23;20352;-81
2023/04/26 02:30:13;;;;;;;;;;;;;;;;;;7595640;23;19905;-76
2023/04/26 02:33:13;;;;;;;;;;;;;;;;;;7570070;23;19909;-77
2023/04/26 02:36:13;;;;;;;;;;;;;;;;;;7595430;23;20313;-76
2023/04/26 02:39:13;;;;;;;;;;;;;;;;;;7594674;23;19947;-76
2023/04/26 02:42:13;;;;;;;;;;;;;;;;;;7596160;23;19955;-76
2023/04/26 02:45:13;;;;;;;;;;;;;;;;;;7596528;23;19908;-77
2023/04/26 02:48:13;;;;;;;;;;;;;;;;;;7596322;23;19901;-77
2023/04/26 02:51:14;;;;;;;;;;;;;;;;;;7596518;23;20282;-77
2023/04/26 02:54:15;;;;;;;;;;;;;;;;;;7596809;23;19905;-77
2023/04/26 02:57:15;;;;;;;;;;;;;;;;;;7595660;23;19912;-77
2023/04/26 03:00:15;;;;;;;;;;;;;;;;;;7596298;23;19901;-77
2023/04/26 03:03:15;;;;;;;;;;;;;;;;;;7596303;23;19965;-77
2023/04/26 03:06:15;;;;;;;;;;;;;;;;;;7595710;23;20318;-77
2023/04/26 03:09:16;;;;;;;;;;;;;;;;;;7596004;23;20340;-77
2023/04/26 03:12:16;;;;;;;;;;;;;;;;;;7595707;23;19959;-77
2023/04/26 03:15:17;;;;;;;;;;;;;;;;;;7595376;23;20012;-77
2023/04/26 03:18:17;;;;;;;;;;;;;;;;;;7596339;23;19912;-77
2023/04/26 03:21:17;;;;;;;;;;;;;;;;;;7596082;23;19955;-77
2023/04/26 03:24:17;;;;;;;;;;;;;;;;;;7595977;23;19909;-77
2023/04/26 03:27:17;;;;;;;;;;;;;;;;;;7595752;23;19916;-77
2023/04/26 03:30:17;;;;;;;;;;;;;;;;;;7595225;23;19983;-78
2023/04/26 03:33:17;;;;;;;;;;;;;;;;;;7593754;23;19911;-77
2023/04/26 03:36:18;;;;;;;;;;;;;;;;;;7595929;23;19944;-78
2023/04/26 03:39:18;;;;;;;;;;;;;;;;;;7569738;23;19901;-84
2023/04/26 03:42:19;;;;;;;;;;;;;;;;;;7595909;23;19908;-83
2023/04/26 03:45:21;;;;;;;;;;;;;;;;;;7595936;23;19905;-82
2023/04/26 03:48:21;;;;;;;;;;;;;;;;;;7597591;23;19901;-83
2023/04/26 03:51:21;;;;;;;;;;;;;;;;;;7597222;23;19954;-83
2023/04/26 03:54:21;;;;;;;;;;;;;;;;;;7597551;23;20152;-84
2023/04/26 03:57:21;;;;;;;;;;;;;;;;;;7596581;23;19951;-84
2023/04/26 04:00:21;;;;;;;;;;;;;;;;;;7570828;23;20306;-85
2023/04/26 04:03:22;;;;;;;;;;;;;;;;;;7596545;23;19939;-83
2023/04/26 04:06:22;;;;;;;;;;;;;;;;;;7596532;23;19909;-82
2023/04/26 04:09:22;;;;;;;;;;;;;;;;;;7596472;23;19905;-82
2023/04/26 04:12:24;;;;;;;;;;;;;;;;;;7596581;23;19912;-83
2023/04/26 04:15:24;;;;;;;;;;;;;;;;;;7570645;23;20249;-82
2023/04/26 04:18:25;;;;;;;;;;;;;;;;;;7596837;23;19901;-83
2023/04/26 04:21:26;;;;;;;;;;;;;;;;;;7596008;23;19904;-83
2023/04/26 04:24:26;;;;;;;;;;;;;;;;;;7596231;23;20322;-83
2023/04/26 04:27:27;;;;;;;;;;;;;;;;;;7596533;23;19912;-83
2023/04/26 04:30:28;;;;;;;;;;;;;;;;;;7596413;23;19980;-77
2023/04/26 04:33:28;;;;;;;;;;;;;;;;;;7594934;23;19951;-76
2023/04/26 04:36:28;;;;;;;;;;;;;;;;;;7595952;23;19908;-77
2023/04/26 04:39:28;;;;;;;;;;;;;;;;;;7596262;23;19904;-76
2023/04/26 04:42:28;;;;;;;;;;;;;;;;;;7596164;23;19905;-77
2023/04/26 04:45:29;;;;;;;;;;;;;;;;;;7596063;23;19904;-77
2023/04/26 04:48:29;;;;;;;;;;;;;;;;;;7596770;23;19908;-77
2023/04/26 04:51:29;;;;;;;;;;;;;;;;;;7596664;23;19912;-76
2023/04/26 04:54:29;;;;;;;;;;;;;;;;;;7571149;23;19905;-77
2023/04/26 04:57:31;;;;;;;;;;;;;;;;;;7596340;23;19994;-77
2023/04/26 05:00:31;;;;;;;;;;;;;;;;;;7596033;23;19905;-77
2023/04/26 05:03:32;;;;;;;;;;;;;;;;;;7595469;23;19912;-77
2023/04/26 05:06:32;;;;;;;;;;;;;;;;;;7594749;23;19916;-77
2023/04/26 05:09:32;;;;;;;;;;;;;;;;;;7595543;23;19909;-76
2023/04/26 05:12:34;;;;;;;;;;;;;;;;;;7595326;23;19966;-77
2023/04/26 05:15:34;;;;;;;;;;;;;;;;;;7595908;23;19936;-77
2023/04/26 05:18:34;;;;;;;;;;;;;;;;;;7596097;23;19992;-77
2023/04/26 05:21:34;;;;;;;;;;;;;;;;;;7570129;23;19908;-77
2023/04/26 05:24:34;;;;;;;;;;;;;;;;;;7595062;23;20408;-77
2023/04/26 05:27:36;;;;;;;;;;;;;;;;;;7596019;23;19908;-77
2023/04/26 05:30:36;;;;;;;;;;;;;;;;;;7595408;23;19928;-77
2023/04/26 05:33:37;;;;;;;;;;;;;;;;;;7590359;23;20392;-76
2023/04/26 05:36:37;;;;;;;;;;;;;;;;;;7566521;23;20237;-76
2023/04/26 05:39:37;;;;;;;;;;;;;;;;;;7591586;23;19904;-77
2023/04/26 05:42:38;;;;;;;;;;;;;;;;;;7569291;23;19901;-77
2023/04/26 05:45:38;;;;;;;;;;;;;;;;;;7596121;23;19901;-77
2023/04/26 05:48:38;;;;;;;;;;;;;;;;;;7596859;23;20405;-77
2023/04/26 05:51:38;;;;;;;;;;;;;;;;;;7595504;23;19904;-77
2023/04/26 05:54:38;;;;;;;;;;;;;;;;;;7595920;23;19940;-77
2023/04/26 05:57:38;;;;;;;;;;;;;;;;;;7596033;23;19905;-78
2023/04/26 06:00:38;;;;;;;;;;;;;;;;;;7596389;23;19905;-78
2023/04/26 06:03:38;;;;;;;;;;;;;;;;;;7594106;23;19905;-78
2023/04/26 06:06:38;;;;;;;;;;;;;;;;;;7569817;23;19943;-78
2023/04/26 06:09:39;;;;;;;;;;;;;;;;;;7594193;23;19936;-78
2023/04/26 06:12:39;;;;;;;;;;;;;;;;;;7594859;23;19984;-78
2023/04/26 06:15:39;;;;;;;;;;;;;;;;;;7596273;23;19916;-78
2023/04/26 06:18:39;;;;;;;;;;;;;;;;;;7595983;23;19904;-78
2023/04/26 06:21:40;;;;;;;;;;;;;;;;;;7595397;23;19901;-78
2023/04/26 06:24:40;;;;;;;;;;;;;;;;;;7595774;23;19905;-78
2023/04/26 06:27:40;;;;;;;;;;;;;;;;;;7595664;23;19962;-78
2023/04/26 06:30:40;;;;;;;;;;;;;;;;;;7570023;23;19910;-77
2023/04/26 06:33:40;;;;;;;;;;;;;;;;;;7595900;23;19908;-76
2023/04/26 06:36:40;;;;;;;;;;;;;;;;;;7595630;23;19909;-76
2023/04/26 06:39:40;;;;;;;;;;;;;;;;;;7570012;23;19901;-76
2023/04/26 06:42:40;;;;;;;;;;;;;;;;;;7596249;23;19959;-78
2023/04/26 06:45:41;;;;;;;;;;;;;;;;;;7596449;23;19915;-78
2023/04/26 06:48:41;;;;;;;;;;;;;;;;;;7596695;23;20319;-76
2023/04/26 06:51:41;;;;;;;;;;;;;;;;;;7596047;23;20257;-81
2023/04/26 06:54:41;;;;;;;;;;;;;;;;;;7570562;23;19912;-81
2023/04/26 06:57:41;;;;;;;;;;;;;;;;;;7596105;23;19912;-81
2023/04/26 07:00:41;;;;;;;;;;;;;;;;;;7595945;23;19924;-81
2023/04/26 07:03:42;;;;;;;;;;;;;;;;;;7596350;23;19905;-82
2023/04/26 07:06:42;;;;;;;;;;;;;;;;;;7596045;23;19928;-83
2023/04/26 07:09:42;;;;;;;;;;;;;;;;;;7567121;23;19905;-77
2023/04/26 07:12:42;;;;;;;;;;;;;;;;;;7595057;23;19962;-77
2023/04/26 07:15:42;;;;;;;;;;;;;;;;;;7595266;23;19920;-77
2023/04/26 07:18:42;;;;;;;;;;;;;;;;;;7594985;23;19909;-77
2023/04/26 07:21:42;;;;;;;;;;;;;;;;;;7597597;23;19909;-77
2023/04/26 07:24:42;;;;;;;;;;;;;;;;;;7572703;23;19909;-77
2023/04/26 07:27:42;;;;;;;;;;;;;;;;;;7599056;23;19916;-77
2023/04/26 07:30:43;;;;;;;;;;;;;;;;;;7572724;23;20367;-77
2023/04/26 07:33:43;;;;;;;;;;;;;;;;;;7598984;23;20293;-77
2023/04/26 07:36:43;;;;;;;;;;;;;;;;;;7598750;23;20329;-77
2023/04/26 07:39:43;;;;;;;;;;;;;;;;;;7599073;23;19912;-77
2023/04/26 07:42:43;;;;;;;;;;;;;;;;;;7598680;23;19939;-77
2023/04/26 07:45:43;;;;;;;;;;;;;;;;;;7599048;23;20348;-77
2023/04/26 07:48:43;;;;;;;;;;;;;;;;;;7573075;23;19912;-77
2023/04/26 07:51:44;;;;;;;;;;;;;;;;;;7598728;23;19905;-77
2023/04/26 07:54:45;;;;;;;;;;;;;;;;;;7598957;23;19901;-77
2023/04/26 07:57:45;;;;;;;;;;;;;;;;;;7598854;23;19900;-77
2023/04/26 08:00:45;;;;;;;;;;;;;;;;;;7599020;23;20289;-82
2023/04/26 08:03:47;;;;;;;;;;;;;;;;;;7599138;23;19901;-83
2023/04/26 08:06:48;;;;;;;;;;;;;;;;;;7599397;23;19905;-81
2023/04/26 08:09:48;;;;;;;;;;;;;;;;;;7599271;23;19912;-82
2023/04/26 08:12:48;;;;;;;;;;;;;;;;;;7598035;23;19992;-81
2023/04/26 08:15:48;;;;;;;;;;;;;;;;;;7572665;23;20249;-81
2023/04/26 08:18:48;;;;;;;;;;;;;;;;;;7598162;23;19905;-81
2023/04/26 08:21:49;;;;;;;;;;;;;;;;;;7599474;23;19905;-82
2023/04/26 08:24:49;;;;;;;;;;;;;;;;;;7599063;23;19901;-82
2023/04/26 08:27:50;;;;;;;;;;;;;;;;;;7599054;23;19907;-82
2023/04/26 08:30:50;;;;;;;;;;;;;;;;;;7572957;23;19908;-82
2023/04/26 08:33:50;;;;;;;;;;;;;;;;;;7595402;23;20366;-81
2023/04/26 08:36:50;;;;;;;;;;;;;;;;;;7596488;23;19905;-83
2023/04/26 08:39:50;;;;;;;;;;;;;;;;;;7596880;23;19901;-84
2023/04/26 08:42:52;;;;;;;;;;;;;;;;;;7570252;23;20321;-82
2023/04/26 08:45:53;;;;;;;;;;;;;;;;;;7597682;23;19905;-82
2023/04/26 08:48:53;;;;;;;;;;;;;;;;;;7597257;23;19984;-82
2023/04/26 08:51:53;;;;;;;;;;;;;;;;;;7595284;23;19901;-82
2023/04/26 08:54:54;;;;;;;;;;;;;;;;;;7597281;23;19971;-82
2023/04/26 08:57:54;;;;;;;;;;;;;;;;;;7597420;23;19938;-82
2023/04/26 09:00:55;;;;;;;;;;;;;;;;;;7597103;23;19908;-82
2023/04/26 09:03:55;;;;;;;;;;;;;;;;;;7570125;23;19959;-82
2023/04/26 09:06:55;;;;;;;;;;;;;;;;;;7596551;23;20276;-83
2023/04/26 09:09:56;;;;;;;;;;;;;;;;;;7597796;23;19901;-78
2023/04/26 09:12:56;;;;;;;;;;;;;;;;;;7596134;23;20322;-77
2023/04/26 09:15:56;;;;;;;;;;;;;;;;;;7596305;23;19909;-78
2023/04/26 09:18:57;;;;;;;;;;;;;;;;;;7596002;23;19901;-78
2023/04/26 09:21:57;;;;;;;;;;;;;;;;;;7596548;23;19994;-78
2023/04/26 09:24:58;;;;;;;;;;;;;;;;;;7570889;23;19923;-77
2023/04/26 09:27:58;;;;;;;;;;;;;;;;;;7596256;23;19905;-78
2023/04/26 09:30:58;;;;;;;;;;;;;;;;;;7596376;23;20240;-77
2023/04/26 09:33:58;;;;;;;;;;;;;;;;;;7595870;23;19911;-78
2023/04/26 09:36:58;;;;;;;;;;;;;;;;;;7596141;23;19957;-78
2023/04/26 09:39:58;;;;;;;;;;;;;;;;;;7595890;23;19904;-78
2023/04/26 09:42:59;;;;;;;;;;;;;;;;;;7596067;23;19979;-78
2023/04/26 09:45:59;;;;;;;;;;;;;;;;;;7595752;23;19983;-78
2023/04/26 09:48:59;;;;;;;;;;;;;;;;;;7595906;23;19901;-78
2023/04/26 09:51:59;;;;;;;;;;;;;;;;;;7569971;23;19924;-78
2023/04/26 09:55:01;;;;;;;;;;;;;;;;;;7595245;23;19912;-77
2023/04/26 09:58:01;;;;;;;;;;;;;;;;;;7595455;23;19924;-77
2023/04/26 10:01:01;;;;;;;;;;;;;;;;;;7596970;23;20301;-78
2023/04/26 10:04:03;;;;;;;;;;;;;;;;;;7569370;23;19933;-77
2023/04/26 10:07:04;;;;;;;;;;;;;;;;;;7594060;23;19909;-77
2023/04/26 10:10:04;;;;;;;;;;;;;;;;;;7595901;23;19928;-77
2023/04/26 10:13:04;;;;;;;;;;;;;;;;;;7554298;23;19975;-77
2023/04/26 10:16:05;;;;;;;;;;;;;;;;;;7560044;23;19917;-77
2023/04/26 10:19:05;;;;;;;;;;;;;;;;;;7557783;23;20285;-77
2023/04/26 10:22:06;;;;;;;;;;;;;;;;;;7557368;23;20344;-77
2023/04/26 10:25:07;;;;;;;;;;;;;;;;;;7557466;23;19901;-77
2023/04/26 10:28:08;;;;;;;;;;;;;;;;;;7560553;23;19908;-78
2023/04/26 10:31:08;;;;;;;;;;;;;;;;;;7560079;23;19901;-77
2023/04/26 10:34:08;;;;;;;;;;;;;;;;;;7559815;23;19906;-78
2023/04/26 10:37:08;;;;;;;;;;;;;;;;;;7559369;23;19971;-78
2023/04/26 10:40:08;;;;;;;;;;;;;;;;;;7559480;23;19955;-82
2023/04/26 10:43:08;;;;;;;;;;;;;;;;;;7559277;23;19932;-82
2023/04/26 10:46:09;;;;;;;;;;;;;;;;;;7559439;23;20237;-82
2023/04/26 10:49:09;;;;;;;;;;;;;;;;;;7559096;23;19912;-82
2023/04/26 10:52:10;;;;;;;;;;;;;;;;;;7559120;23;19905;-82
2023/04/26 10:55:10;;;;;;;;;;;;;;;;;;7558968;23;19924;-81
2023/04/26 10:58:10;;;;;;;;;;;;;;;;;;7560495;23;19983;-83
2023/04/26 11:01:12;;;;;;;;;;;;;;;;;;7558039;23;19901;-82
2023/04/26 11:04:12;;;;;;;;;;;;;;;;;;7560243;23;19976;-83
2023/04/26 11:07:12;;;;;;;;;;;;;;;;;;7559417;23;20379;-82
2023/04/26 11:10:13;;;;;;;;;;;;;;;;;;7559848;23;19932;-82
2023/04/26 11:13:13;;;;;;;;;;;;;;;;;;7589170;23;19917;-81
2023/04/26 11:16:13;;;;;;;;;;;;;;;;;;7595665;23;19917;-82
2023/04/26 11:19:14;;;;;;;;;;;;;;;;;;7595290;23;20023;-81
2023/04/26 11:22:14;;;;;;;;;;;;;;;;;;7595321;23;19905;-82
2023/04/26 11:25:14;;;;;;;;;;;;;;;;;;7569061;23;19988;-82
2023/04/26 11:28:14;;;;;;;;;;;;;;;;;;7595325;23;20321;-81
2023/04/26 11:31:14;;;;;;;;;;;;;;;;;;7594811;23;19937;-77
2023/04/26 11:34:16;;;;;;;;;;;;;;;;;;7594854;23;19901;-77
2023/04/26 11:37:16;;;;;;;;;;;;;;;;;;7594966;23;19970;-77
2023/04/26 11:40:16;;;;;;;;;;;;;;;;;;7594062;23;20340;-77
2023/04/26 11:43:16;;;;;;;;;;;;;;;;;;7569001;23;19905;-76
2023/04/26 11:46:17;;;;;;;;;;;;;;;;;;7594522;23;20318;-77
2023/04/26 11:49:17;;;;;;;;;;;;;;;;;;7594502;23;19941;-82
2023/04/26 11:52:18;;;;;;;;;;;;;;;;;;7595499;23;19984;-83
2023/04/26 11:55:18;;;;;;;;;;;;;;;;;;7595013;23;19909;-83
2023/04/26 11:58:18;;;;;;;;;;;;;;;;;;7596087;23;19924;-80
2023/04/26 12:01:18;;;;;;;;;;;;;;;;;;7593837;23;19900;-82
2023/04/26 12:04:18;;;;;;;;;;;;;;;;;;7595051;23;20317;-80
2023/04/26 12:07:18;;;;;;;;;;;;;;;;;;7567774;23;19979;-82
2023/04/26 12:10:20;;;;;;;;;;;;;;;;;;7595939;23;19907;-81
2023/04/26 12:13:20;;;;;;;;;;;;;;;;;;7558750;23;20297;-82
2023/04/26 12:16:20;;;;;;;;;;;;;;;;;;7560202;23;19913;-82
2023/04/26 12:19:20;;;;;;;;;;;;;;;;;;7559665;23;19928;-81
2023/04/26 12:22:21;;;;;;;;;;;;;;;;;;7560194;23;20241;-81
2023/04/26 12:25:21;;;;;;;;;;;;;;;;;;7558524;23;19921;-82
2023/04/26 12:28:21;;;;;;;;;;;;;;;;;;7560916;23;19902;-81
2023/04/26 12:31:21;;;;;;;;;;;;;;;;;;7559882;23;19913;-81
2023/04/26 12:34:21;;;;;;;;;;;;;;;;;;7560191;23;19937;-81
2023/04/26 12:37:21;;;;;;;;;;;;;;;;;;7561130;23;20404;-82
2023/04/26 12:40:21;;;;;;;;;;;;;;;;;;7560518;23;19987;-81
2023/04/26 12:43:22;;;;;;;;;;;;;;;;;;7561054;23;19913;-82
2023/04/26 12:46:23;;;;;;;;;;;;;;;;;;7560710;23;19905;-81
2023/04/26 12:49:23;;;;;;;;;;;;;;;;;;7560901;23;19905;-81
2023/04/26 12:52:23;;;;;;;;;;;;;;;;;;7560969;23;19916;-82
2023/04/26 12:55:23;;;;;;;;;;;;;;;;;;7560939;23;19916;-82
2023/04/26 12:58:24;;;;;;;;;;;;;;;;;;7560837;23;19905;-82
2023/04/26 13:01:24;;;;;;;;;;;;;;;;;;7561592;23;19979;-82
2023/04/26 13:04:25;;;;;;;;;;;;;;;;;;7560982;23;19905;-81
2023/04/26 13:07:25;;;;;;;;;;;;;;;;;;7559826;23;19908;-82
2023/04/26 13:10:25;;;;;;;;;;;;;;;;;;7560313;23;20324;-81
2023/04/26 13:13:25;;;;;;;;;;;;;;;;;;7591658;23;19912;-81
2023/04/26 13:16:25;;;;;;;;;;;;;;;;;;7596017;23;19913;-81
2023/04/26 13:19:26;;;;;;;;;;;;;;;;;;7570759;23;19987;-81
2023/04/26 13:22:26;;;;;;;;;;;;;;;;;;7596550;23;19970;-81
2023/04/26 13:25:26;;;;;;;;;;;;;;;;;;7597076;23;19950;-81
2023/04/26 13:28:26;;;;;;;;;;;;;;;;;;7597049;23;19905;-81
2023/04/26 13:31:26;;;;;;;;;;;;;;;;;;7606032;23;19905;-81
2023/04/26 13:34:26;;;;;;;;;;;;;;;;;;7609509;23;20393;-80
2023/04/26 13:37:26;;;;;;;;;;;;;;;;;;7601245;23;19916;-81
2023/04/26 13:40:27;;;;;;;;;;;;;;;;;;7597766;23;20011;-81
2023/04/26 13:43:27;;;;;;;;;;;;;;;;;;7595181;23;19984;-81
2023/04/26 13:46:27;;;;;;;;;;;;;;;;;;7594161;23;19905;-81
2023/04/26 13:49:30;;;;;;;;;;;;;;;;;;7610285;23;19901;-82
2023/04/26 13:52:30;;;;;;;;;;;;;;;;;;7609484;23;20478;-81
2023/04/26 13:55:30;;;;;;;;;;;;;;;;;;7603006;23;20000;-82
2023/04/26 13:58:31;;;;;;;;;;;;;;;;;;7596021;23;19933;-82
2023/04/26 14:01:31;;;;;;;;;;;;;;;;;;7594044;23;19905;-82
2023/04/26 14:04:31;;;;;;;;;;;;;;;;;;7594813;23;19932;-82
2023/04/26 14:07:31;;;;;;;;;;;;;;;;;;7595766;23;19909;-82
2023/04/26 14:10:33;;;;;;;;;;;;;;;;;;7593242;23;20290;-78
2023/04/26 14:13:33;;;;;;;;;;;;;;;;;;7595852;23;20280;-78
2023/04/26 14:16:33;;;;;;;;;;;;;;;;;;7595728;23;20329;-77
2023/04/26 14:19:38;;;;;;;;;;;;;;;;;;7594654;23;19915;-78
2023/04/26 14:22:38;;;;;;;;;;;;;;;;;;7595924;23;20249;-77
2023/04/26 14:25:39;;;;;;;;;;;;;;;;;;7595653;23;19908;-78
2023/04/26 14:28:40;;;;;;;;;;;;;;;;;;7596565;23;19905;-79
2023/04/26 14:31:40;;;;;;;;;;;;;;;;;;7596350;23;19912;-78
2023/04/26 14:34:41;;;;;;;;;;;;;;;;;;7596660;23;19928;-77
2023/04/26 14:37:41;;;;;;;;;;;;;;;;;;7568774;23;20391;-77
2023/04/26 14:40:41;;;;;;;;;;;;;;;;;;7595953;23;20284;-78
2023/04/26 14:43:42;;;;;;;;;;;;;;;;;;7566437;23;20341;-77
2023/04/26 14:46:42;;;;;;;;;;;;;;;;;;7567800;23;19948;-77
2023/04/26 14:49:42;;;;;;;;;;;;;;;;;;7568974;23;19901;-77
2023/04/26 14:52:42;;;;;;;;;;;;;;;;;;7595386;23;20241;-77
2023/04/26 14:55:42;;;;;;;;;;;;;;;;;;7592637;23;19905;-77
2023/04/26 14:58:42;;;;;;;;;;;;;;;;;;7593264;23;19904;-77
2023/04/26 15:01:43;;;;;;;;;;;;;;;;;;7600513;23;19912;-82
2023/04/26 15:04:45;;;;;;;;;;;;;;;;;;7596840;23;20317;-82
2023/04/26 15:07:48;;;;;;;;;;;;;;;;;;7596344;23;19901;-81
2023/04/26 15:10:48;;;;;;;;;;;;;;;;;;7598868;23;19923;-80
2023/04/26 15:13:48;;;;;;;;;;;;;;;;;;7600724;23;20322;-81
2023/04/26 15:16:48;;;;;;;;;;;;;;;;;;7596233;23;19962;-80
2023/04/26 15:19:48;;;;;;;;;;;;;;;;;;7596218;23;20383;-81
2023/04/26 15:22:48;;;;;;;;;;;;;;;;;;7595403;23;19943;-80
2023/04/26 15:25:49;;;;;;;;;;;;;;;;;;7597208;23;19923;-81
2023/04/26 15:28:50;;;;;;;;;;;;;;;;;;7596128;23;19936;-81
2023/04/26 15:31:51;;;;;;;;;;;;;;;;;;7595511;23;19901;-81
2023/04/26 15:34:53;;;;;;;;;;;;;;;;;;7595550;23;19975;-81
2023/04/26 15:37:53;;;;;;;;;;;;;;;;;;7595539;23;20734;-81
2023/04/26 15:40:53;;;;;;;;;;;;;;;;;;7596217;23;19957;-82
2023/04/26 15:43:58;;;;;;;;;;;;;;;;;;7571632;23;19958;-81
2023/04/26 15:47:00;;;;;;;;;;;;;;;;;;7597681;23;19901;-82
2023/04/26 15:50:02;;;;;;;;;;;;;;;;;;7597438;23;19901;-81
2023/04/26 15:53:02;;;;;;;;;;;;;;;;;;7597476;23;19939;-81
2023/04/26 15:56:03;;;;;;;;;;;;;;;;;;7597235;23;19988;-81
2023/04/26 15:59:03;;;;;;;;;;;;;;;;;;7597405;23;20240;-81
2023/04/26 16:02:04;;;;;;;;;;;;;;;;;;7597150;23;19936;-83
2023/04/26 16:05:06;;;;;;;;;;;;;;;;;;7596212;23;19901;-83
2023/04/26 16:08:06;;;;;;;;;;;;;;;;;;7596125;23;19905;-83
2023/04/26 16:11:06;;;;;;;;;;;;;;;;;;7595562;23;19927;-76
2023/04/26 16:14:07;;;;;;;;;;;;;;;;;;7595957;23;19905;-79
2023/04/26 16:17:07;;;;;;;;;;;;;;;;;;7592692;23;19913;-79
2023/04/26 16:20:07;;;;;;;;;;;;;;;;;;7593471;23;19905;-78
2023/04/26 16:23:07;;;;;;;;;;;;;;;;;;7592875;23;19947;-78
2023/04/26 16:26:08;;;;;;;;;;;;;;;;;;7568140;23;19987;-78
2023/04/26 16:29:08;;;;;;;;;;;;;;;;;;7589560;23;19901;-78
2023/04/26 16:32:08;;;;;;;;;;;;;;;;;;7568634;23;20363;-82
2023/04/26 16:35:09;;;;;;;;;;;;;;;;;;7594876;23;20390;-82
2023/04/26 16:38:10;;;;;;;;;;;;;;;;;;7595394;23;19940;-82
2023/04/26 16:41:10;;;;;;;;;;;;;;;;;;7595262;23;19940;-82
2023/04/26 16:44:10;;;;;;;;;;;;;;;;;;7594661;23;19901;-82
2023/04/26 16:47:10;;;;;;;;;;;;;;;;;;7569774;23;19904;-82
2023/04/26 16:50:10;;;;;;;;;;;;;;;;;;7595552;23;19936;-82
2023/04/26 16:53:10;;;;;;;;;;;;;;;;;;7569964;23;19901;-82
2023/04/26 16:56:11;;;;;;;;;;;;;;;;;;7562772;23;20297;-82
2023/04/26 16:59:11;;;;;;;;;;;;;;;;;;7595632;23;20345;-82
2023/04/26 17:02:11;;;;;;;;;;;;;;;;;;7570349;23;20305;-82
2023/04/26 17:05:12;;;;;;;;;;;;;;;;;;7596174;23;20250;-81
2023/04/26 17:08:12;;;;;;;;;;;;;;;;;;7575508;23;19905;-81
2023/04/26 17:11:12;;;;;;;;;;;;;;;;;;7606070;23;20250;-81
2023/04/26 17:14:12;;;;;;;;;;;;;;;;;;7597190;23;20330;-82
2023/04/26 17:17:12;;;;;;;;;;;;;;;;;;7598418;23;19999;-81
2023/04/26 17:20:13;;;;;;;;;;;;;;;;;;7597182;23;19912;-81
2023/04/26 17:23:13;;;;;;;;;;;;;;;;;;7606300;23;19901;-82
2023/04/26 17:26:14;;;;;;;;;;;;;;;;;;7604133;23;19909;-81
2023/04/26 17:29:14;;;;;;;;;;;;;;;;;;7597887;23;19955;-82
2023/04/26 17:32:14;;;;;;;;;;;;;;;;;;7569439;23;19905;-81
2023/04/26 17:35:15;;;;;;;;;;;;;;;;;;7596256;23;19915;-82
2023/04/26 17:38:15;;;;;;;;;;;;;;;;;;7596885;23;19992;-82
2023/04/26 17:41:16;;;;;;;;;;;;;;;;;;7570239;23;19901;-81
2023/04/26 17:44:17;;;;;;;;;;;;;;;;;;7596653;23;19927;-82
2023/04/26 17:47:17;;;;;;;;;;;;;;;;;;7596158;23;19909;-82
2023/04/26 17:50:17;;;;;;;;;;;;;;;;;;7598168;23;19914;-82
2023/04/26 17:53:17;;;;;;;;;;;;;;;;;;7598008;23;19905;-83
2023/04/26 17:56:17;;;;;;;;;;;;;;;;;;7596912;23;19912;-83
2023/04/26 17:59:17;;;;;;;;;;;;;;;;;;7571402;23;19905;-82
2023/04/26 18:02:18;;;;;;;;;;;;;;;;;;7595049;23;19909;-82
2023/04/26 18:05:18;;;;;;;;;;;;;;;;;;7596314;23;19901;-82
2023/04/26 18:08:19;;;;;;;;;;;;;;;;;;7568251;23;19905;-82
2023/04/26 18:11:20;;;;;;;;;;;;;;;;;;7594171;23;20241;-80
2023/04/26 18:14:20;;;;;;;;;;;;;;;;;;7595414;23;19980;-81
2023/04/26 18:17:21;;;;;;;;;;;;;;;;;;7570622;23;19915;-81
2023/04/26 18:20:21;;;;;;;;;;;;;;;;;;7597594;23;19901;-80
2023/04/26 18:23:21;;;;;;;;;;;;;;;;;;7598121;23;19912;-82
2023/04/26 18:26:21;;;;;;;;;;;;;;;;;;7595943;23;19901;-81
2023/04/26 18:29:22;;;;;;;;;;;;;;;;;;7596175;23;19909;-78
2023/04/26 18:32:22;;;;;;;;;;;;;;;;;;7601380;23;19918;-81
2023/04/26 18:35:25;;;;;;;;;;;;;;;;;;7601736;23;20493;-81
2023/04/26 18:38:29;;;;;;;;;;;;;;;;;;7601968;23;19922;-81
2023/04/26 18:41:29;;;;;;;;;;;;;;;;;;7601287;23;19984;-82
2023/04/26 18:44:29;;;;;;;;;;;;;;;;;;7599727;23;19901;-82
2023/04/26 18:47:29;;;;;;;;;;;;;;;;;;7598596;23;19984;-82
2023/04/26 18:50:31;;;;;;;;;;;;;;;;;;7598040;23;19957;-78
2023/04/26 18:53:31;;;;;;;;;;;;;;;;;;7596565;23;19923;-77
2023/04/26 18:56:31;;;;;;;;;;;;;;;;;;7596666;23;19904;-77
2023/04/26 18:59:31;;;;;;;;;;;;;;;;;;7596821;23;19959;-78
2023/04/26 19:02:32;;;;;;;;;;;;;;;;;;7596447;23;19947;-78
2023/04/26 19:05:33;;;;;;;;;;;;;;;;;;7580276;23;20352;-76
2023/04/26 19:08:33;;;;;;;;;;;;;;;;;;7595722;23;19912;-77
2023/04/26 19:11:34;;;;;;;;;;;;;;;;;;7596075;23;19916;-77
2023/04/26 19:14:35;;;;;;;;;;;;;;;;;;7596702;23;19948;-78
2023/04/26 19:17:38;;;;;;;;;;;;;;;;;;7594806;23;19913;-77
2023/04/26 19:20:38;;;;;;;;;;;;;;;;;;7594520;23;20241;-77
2023/04/26 19:23:39;;;;;;;;;;;;;;;;;;7595890;23;19901;-78
2023/04/26 19:26:39;;;;;;;;;;;;;;;;;;7596678;23;19912;-77
2023/04/26 19:29:39;;;;;;;;;;;;;;;;;;7596449;23;19952;-77
2023/04/26 19:32:44;;;;;;;;;;;;;;;;;;7570536;23;19905;-78
2023/04/26 19:35:44;;;;;;;;;;;;;;;;;;7595369;23;19905;-78
2023/04/26 19:38:47;;;;;;;;;;;;;;;;;;7596265;23;19908;-77
2023/04/26 19:41:47;;;;;;;;;;;;;;;;;;7595663;23;19912;-77
2023/04/26 19:44:47;;;;;;;;;;;;;;;;;;7595023;23;20310;-78
2023/04/26 19:47:47;;;;;;;;;;;;;;;;;;7595402;23;19912;-78
2023/04/26 19:50:47;;;;;;;;;;;;;;;;;;7595162;23;19912;-77
2023/04/26 19:53:47;;;;;;;;;;;;;;;;;;7595030;23;19992;-78
2023/04/26 19:56:47;;;;;;;;;;;;;;;;;;7594775;23;20352;-78
2023/04/26 19:59:47;;;;;;;;;;;;;;;;;;7594599;23;19905;-78
2023/04/26 20:02:48;;;;;;;;;;;;;;;;;;7568838;23;19916;-78
2023/04/26 20:05:51;;;;;;;;;;;;;;;;;;7569613;23;19932;-79
2023/04/26 20:08:51;;;;;;;;;;;;;;;;;;7596811;23;20328;-78
2023/04/26 20:11:52;;;;;;;;;;;;;;;;;;7597462;23;20047;-78
2023/04/26 20:14:52;;;;;;;;;;;;;;;;;;7595727;23;19905;-77
2023/04/26 20:17:52;;;;;;;;;;;;;;;;;;7597290;23;19999;-81
2023/04/26 20:20:55;;;;;;;;;;;;;;;;;;7597776;23;19908;-79
2023/04/26 20:24:01;;;;;;;;;;;;;;;;;;7662727;23;20367;-79
2023/04/26 20:27:02;;;;;;;;;;;;;;;;;;7596386;23;20306;-79
2023/04/26 20:30:02;;;;;;;;;;;;;;;;;;7599214;23;19901;-82
2023/04/26 20:33:04;;;;;;;;;;;;;;;;;;7600723;23;20377;-79